This is the latest recevied weather packets stored in our database for station/object SQ9PDE-13. If no packets are shown the sender has not sent any weather packets the latest 10 day(s).
| Time | Temp. | Humidity | Pressure | Rain* | Wind** | Luminosity | Snow |
|---|---|---|---|---|---|---|---|
| 1777871213 | 13.33° C | 54% | 1016 hPa | - | - | - | - |
| 1777870912 | 13.89° C | 58% | 1016.9 hPa | - | - | - | - |
| 1777870839 | 13.89° C | 63% | 1016.9 hPa | - | - | - | - |
| 1777870612 | 13.89° C | 63% | 1016.9 hPa | - | - | - | - |
| 1777870311 | 13.89° C | 64% | 1016.7 hPa | - | - | - | - |
| 1777870011 | 13.33° C | 65% | 1016.4 hPa | - | - | - | - |
| 1777869989 | 11.67° C | 65% | 1016.2 hPa | - | - | - | - |
| 1777869989 | 12.22° C | 65% | 1016.3 hPa | - | - | - | - |
| 1777869710 | 12.22° C | 65% | 1016.3 hPa | - | - | - | - |
| 1777869410 | 11.67° C | 65% | 1016.2 hPa | - | - | - | - |
| 1777869109 | 11.11° C | 66% | 1016.2 hPa | - | - | - | - |
| 1777868809 | 11.11° C | 67% | 1016.2 hPa | - | - | - | - |
| 1777868508 | 10.56° C | 66% | 1016.3 hPa | - | - | - | - |
| 1777868239 | 10.56° C | 67% | 1016.3 hPa | - | - | - | - |
| 1777868207 | 10.56° C | 67% | 1016.3 hPa | - | - | - | - |
| 1777867907 | 10° C | 70% | 1016.4 hPa | - | - | - | - |
| 1777867606 | 9.44° C | 71% | 1016.5 hPa | - | - | - | - |
| 1777867306 | 9.44° C | 66% | 1016.1 hPa | - | - | - | - |
| 1777867005 | 8.89° C | 67% | 1016.1 hPa | - | - | - | - |
| 1777866705 | 8.89° C | 67% | 1016.1 hPa | - | - | - | - |
| 1777866404 | 8.33° C | 67% | 1016.2 hPa | - | - | - | - |
| 1777866104 | 8.33° C | 69% | 1016.2 hPa | - | - | - | - |
| 1777865836 | 8.33° C | 69% | 1016.2 hPa | - | - | - | - |
| 1777865803 | 8.33° C | 69% | 1016.2 hPa | - | - | - | - |
| 1777865503 | 8.33° C | 68% | 1016.1 hPa | - | - | - | - |
* Rain since midnight (hover to see other rain measurements)
** Current wind speed in m/s (hover to see current wind gust speed)